sensor_id;sensor_type;location;lat;lon;timestamp;P1;durP1;ratioP1;P2;durP2;ratioP2
21554;SDS011;10938;44.794;-0.676;2023-08-30T00:01:10;1.27;;;1.08;;
21554;SDS011;10938;44.794;-0.676;2023-08-30T00:03:35;1.60;;;0.60;;
21554;SDS011;10938;44.794;-0.676;2023-08-30T00:06:04;1.05;;;0.95;;
21554;SDS011;10938;44.794;-0.676;2023-08-30T00:08:29;0.70;;;0.70;;
21554;SDS011;10938;44.794;-0.676;2023-08-30T00:10:55;0.63;;;0.63;;
21554;SDS011;10938;44.794;-0.676;2023-08-30T00:13:23;1.67;;;0.88;;
21554;SDS011;10938;44.794;-0.676;2023-08-30T00:15:48;0.63;;;0.63;;
21554;SDS011;10938;44.794;-0.676;2023-08-30T00:18:14;1.38;;;0.80;;
21554;SDS011;10938;44.794;-0.676;2023-08-30T00:20:39;1.20;;;0.75;;
21554;SDS011;10938;44.794;-0.676;2023-08-30T00:23:04;0.93;;;0.70;;
21554;SDS011;10938;44.794;-0.676;2023-08-30T00:25:29;2.22;;;1.23;;
21554;SDS011;10938;44.794;-0.676;2023-08-30T00:27:55;3.37;;;0.90;;
21554;SDS011;10938;44.794;-0.676;2023-08-30T00:30:20;0.70;;;0.70;;
21554;SDS011;10938;44.794;-0.676;2023-08-30T00:32:45;1.73;;;1.00;;
21554;SDS011;10938;44.794;-0.676;2023-08-30T00:35:11;0.73;;;0.60;;
21554;SDS011;10938;44.794;-0.676;2023-08-30T00:37:36;0.50;;;0.50;;
21554;SDS011;10938;44.794;-0.676;2023-08-30T00:40:01;7.07;;;1.67;;
21554;SDS011;10938;44.794;-0.676;2023-08-30T00:42:27;1.30;;;1.00;;
21554;SDS011;10938;44.794;-0.676;2023-08-30T00:44:55;1.08;;;0.82;;
21554;SDS011;10938;44.794;-0.676;2023-08-30T00:47:21;0.75;;;0.60;;
21554;SDS011;10938;44.794;-0.676;2023-08-30T00:49:46;1.08;;;0.98;;
21554;SDS011;10938;44.794;-0.676;2023-08-30T00:52:12;1.02;;;0.50;;
21554;SDS011;10938;44.794;-0.676;2023-08-30T00:54:38;0.70;;;0.70;;
21554;SDS011;10938;44.794;-0.676;2023-08-30T00:57:03;1.10;;;0.50;;
21554;SDS011;10938;44.794;-0.676;2023-08-30T00:59:29;0.35;;;0.35;;
21554;SDS011;10938;44.794;-0.676;2023-08-30T01:05:00;0.75;;;0.65;;
21554;SDS011;10938;44.794;-0.676;2023-08-30T01:07:25;2.28;;;0.90;;
21554;SDS011;10938;44.794;-0.676;2023-08-30T01:09:52;0.73;;;0.73;;
21554;SDS011;10938;44.794;-0.676;2023-08-30T01:12:20;1.02;;;0.55;;
21554;SDS011;10938;44.794;-0.676;2023-08-30T01:14:56;0.88;;;0.85;;
21554;SDS011;10938;44.794;-0.676;2023-08-30T01:17:22;1.45;;;0.93;;
21554;SDS011;10938;44.794;-0.676;2023-08-30T01:27:25;2.65;;;1.05;;
21554;SDS011;10938;44.794;-0.676;2023-08-30T01:29:51;0.80;;;0.63;;
21554;SDS011;10938;44.794;-0.676;2023-08-30T01:32:19;1.02;;;0.70;;
21554;SDS011;10938;44.794;-0.676;2023-08-30T01:34:45;0.68;;;0.68;;
21554;SDS011;10938;44.794;-0.676;2023-08-30T01:37:12;1.00;;;0.90;;
21554;SDS011;10938;44.794;-0.676;2023-08-30T01:39:39;0.73;;;0.73;;
21554;SDS011;10938;44.794;-0.676;2023-08-30T01:42:06;0.88;;;0.82;;
21554;SDS011;10938;44.794;-0.676;2023-08-30T01:44:32;0.98;;;0.60;;
21554;SDS011;10938;44.794;-0.676;2023-08-30T01:46:59;0.73;;;0.73;;
21554;SDS011;10938;44.794;-0.676;2023-08-30T01:49:25;1.00;;;0.52;;
21554;SDS011;10938;44.794;-0.676;2023-08-30T01:51:51;0.90;;;0.70;;
21554;SDS011;10938;44.794;-0.676;2023-08-30T01:54:18;2.05;;;1.10;;
21554;SDS011;10938;44.794;-0.676;2023-08-30T01:56:46;0.63;;;0.63;;
21554;SDS011;10938;44.794;-0.676;2023-08-30T01:59:12;0.90;;;0.65;;
21554;SDS011;10938;44.794;-0.676;2023-08-30T02:01:37;0.80;;;0.75;;
21554;SDS011;10938;44.794;-0.676;2023-08-30T02:04:03;0.47;;;0.47;;
21554;SDS011;10938;44.794;-0.676;2023-08-30T02:06:31;1.23;;;1.15;;
21554;SDS011;10938;44.794;-0.676;2023-08-30T02:11:23;0.93;;;0.63;;
21554;SDS011;10938;44.794;-0.676;2023-08-30T02:13:49;0.38;;;0.38;;
21554;SDS011;10938;44.794;-0.676;2023-08-30T02:16:15;4.32;;;0.68;;
21554;SDS011;10938;44.794;-0.676;2023-08-30T02:18:41;0.70;;;0.70;;
21554;SDS011;10938;44.794;-0.676;2023-08-30T02:21:07;2.63;;;0.30;;
21554;SDS011;10938;44.794;-0.676;2023-08-30T02:23:33;0.77;;;0.77;;
21554;SDS011;10938;44.794;-0.676;2023-08-30T02:25:58;1.30;;;0.67;;
21554;SDS011;10938;44.794;-0.676;2023-08-30T02:28:23;1.07;;;0.70;;
21554;SDS011;10938;44.794;-0.676;2023-08-30T02:30:49;0.32;;;0.32;;
21554;SDS011;10938;44.794;-0.676;2023-08-30T02:33:15;1.15;;;0.88;;
21554;SDS011;10938;44.794;-0.676;2023-08-30T02:35:40;0.87;;;0.67;;
21554;SDS011;10938;44.794;-0.676;2023-08-30T02:38:06;0.60;;;0.60;;
21554;SDS011;10938;44.794;-0.676;2023-08-30T02:40:32;0.38;;;0.38;;
21554;SDS011;10938;44.794;-0.676;2023-08-30T02:42:57;0.70;;;0.70;;
21554;SDS011;10938;44.794;-0.676;2023-08-30T02:45:23;0.47;;;0.47;;
21554;SDS011;10938;44.794;-0.676;2023-08-30T02:47:48;1.03;;;0.83;;
21554;SDS011;10938;44.794;-0.676;2023-08-30T02:50:13;0.77;;;0.77;;
21554;SDS011;10938;44.794;-0.676;2023-08-30T02:52:39;0.65;;;0.65;;
21554;SDS011;10938;44.794;-0.676;2023-08-30T02:55:04;0.50;;;0.50;;
21554;SDS011;10938;44.794;-0.676;2023-08-30T02:57:30;1.08;;;0.63;;
21554;SDS011;10938;44.794;-0.676;2023-08-30T02:59:55;0.95;;;0.80;;
21554;SDS011;10938;44.794;-0.676;2023-08-30T03:02:20;0.40;;;0.40;;
21554;SDS011;10938;44.794;-0.676;2023-08-30T03:04:46;1.07;;;1.03;;
21554;SDS011;10938;44.794;-0.676;2023-08-30T03:07:11;2.67;;;1.35;;
21554;SDS011;10938;44.794;-0.676;2023-08-30T03:09:36;0.70;;;0.70;;
21554;SDS011;10938;44.794;-0.676;2023-08-30T03:12:03;1.38;;;0.77;;
21554;SDS011;10938;44.794;-0.676;2023-08-30T03:14:29;1.20;;;0.93;;
21554;SDS011;10938;44.794;-0.676;2023-08-30T03:16:54;0.30;;;0.30;;
21554;SDS011;10938;44.794;-0.676;2023-08-30T03:19:20;0.40;;;0.40;;
21554;SDS011;10938;44.794;-0.676;2023-08-30T03:21:45;0.47;;;0.47;;
21554;SDS011;10938;44.794;-0.676;2023-08-30T03:24:10;1.07;;;0.80;;
21554;SDS011;10938;44.794;-0.676;2023-08-30T03:26:36;0.60;;;0.60;;
21554;SDS011;10938;44.794;-0.676;2023-08-30T03:29:01;0.63;;;0.63;;
21554;SDS011;10938;44.794;-0.676;2023-08-30T03:31:26;0.47;;;0.47;;
21554;SDS011;10938;44.794;-0.676;2023-08-30T03:33:52;0.25;;;0.25;;
21554;SDS011;10938;44.794;-0.676;2023-08-30T03:36:17;0.70;;;0.70;;
21554;SDS011;10938;44.794;-0.676;2023-08-30T03:38:43;0.52;;;0.40;;
21554;SDS011;10938;44.794;-0.676;2023-08-30T03:41:10;1.20;;;0.60;;
21554;SDS011;10938;44.794;-0.676;2023-08-30T03:43:35;1.25;;;0.80;;
21554;SDS011;10938;44.794;-0.676;2023-08-30T03:46:01;0.85;;;0.60;;
21554;SDS011;10938;44.794;-0.676;2023-08-30T03:48:27;1.13;;;1.05;;
21554;SDS011;10938;44.794;-0.676;2023-08-30T03:50:52;0.82;;;0.80;;
21554;SDS011;10938;44.794;-0.676;2023-08-30T03:53:22;0.55;;;0.55;;
21554;SDS011;10938;44.794;-0.676;2023-08-30T03:55:47;1.75;;;1.08;;
21554;SDS011;10938;44.794;-0.676;2023-08-30T03:58:13;1.52;;;0.73;;
21554;SDS011;10938;44.794;-0.676;2023-08-30T04:00:38;1.38;;;1.27;;
21554;SDS011;10938;44.794;-0.676;2023-08-30T04:03:07;2.20;;;0.65;;
21554;SDS011;10938;44.794;-0.676;2023-08-30T04:05:36;1.27;;;1.02;;
21554;SDS011;10938;44.794;-0.676;2023-08-30T04:08:02;0.85;;;0.77;;
21554;SDS011;10938;44.794;-0.676;2023-08-30T04:10:37;0.45;;;0.45;;
21554;SDS011;10938;44.794;-0.676;2023-08-30T04:13:03;0.50;;;0.50;;
21554;SDS011;10938;44.794;-0.676;2023-08-30T04:15:28;1.55;;;0.70;;
21554;SDS011;10938;44.794;-0.676;2023-08-30T04:17:56;0.40;;;0.40;;
21554;SDS011;10938;44.794;-0.676;2023-08-30T04:20:21;1.98;;;1.17;;
21554;SDS011;10938;44.794;-0.676;2023-08-30T04:22:47;0.45;;;0.45;;
21554;SDS011;10938;44.794;-0.676;2023-08-30T04:25:12;1.80;;;0.50;;
21554;SDS011;10938;44.794;-0.676;2023-08-30T04:27:38;0.33;;;0.33;;
21554;SDS011;10938;44.794;-0.676;2023-08-30T04:30:04;0.77;;;0.77;;
21554;SDS011;10938;44.794;-0.676;2023-08-30T04:32:30;0.65;;;0.65;;
21554;SDS011;10938;44.794;-0.676;2023-08-30T04:34:56;0.90;;;0.90;;
21554;SDS011;10938;44.794;-0.676;2023-08-30T04:37:22;1.10;;;0.88;;
21554;SDS011;10938;44.794;-0.676;2023-08-30T04:39:47;1.15;;;0.80;;
21554;SDS011;10938;44.794;-0.676;2023-08-30T04:42:13;0.50;;;0.40;;
21554;SDS011;10938;44.794;-0.676;2023-08-30T04:44:39;1.60;;;0.93;;
21554;SDS011;10938;44.794;-0.676;2023-08-30T04:47:04;0.38;;;0.35;;
21554;SDS011;10938;44.794;-0.676;2023-08-30T04:49:29;0.52;;;0.28;;
21554;SDS011;10938;44.794;-0.676;2023-08-30T04:51:55;0.80;;;0.65;;
21554;SDS011;10938;44.794;-0.676;2023-08-30T04:54:20;2.00;;;1.20;;
21554;SDS011;10938;44.794;-0.676;2023-08-30T04:56:45;0.50;;;0.50;;
21554;SDS011;10938;44.794;-0.676;2023-08-30T04:59:11;0.50;;;0.50;;
21554;SDS011;10938;44.794;-0.676;2023-08-30T05:01:36;0.60;;;0.60;;
21554;SDS011;10938;44.794;-0.676;2023-08-30T05:04:03;1.20;;;0.95;;
21554;SDS011;10938;44.794;-0.676;2023-08-30T05:06:32;0.75;;;0.75;;
21554;SDS011;10938;44.794;-0.676;2023-08-30T05:08:58;0.50;;;0.50;;
21554;SDS011;10938;44.794;-0.676;2023-08-30T05:11:23;0.68;;;0.57;;
21554;SDS011;10938;44.794;-0.676;2023-08-30T05:13:48;0.43;;;0.43;;
21554;SDS011;10938;44.794;-0.676;2023-08-30T05:16:14;0.50;;;0.50;;
21554;SDS011;10938;44.794;-0.676;2023-08-30T05:18:39;0.57;;;0.50;;
21554;SDS011;10938;44.794;-0.676;2023-08-30T05:21:04;0.98;;;0.47;;
21554;SDS011;10938;44.794;-0.676;2023-08-30T05:23:30;0.73;;;0.73;;
21554;SDS011;10938;44.794;-0.676;2023-08-30T05:25:56;2.45;;;0.60;;
21554;SDS011;10938;44.794;-0.676;2023-08-30T05:28:21;0.67;;;0.53;;
21554;SDS011;10938;44.794;-0.676;2023-08-30T05:30:46;1.23;;;1.00;;
21554;SDS011;10938;44.794;-0.676;2023-08-30T05:33:11;0.50;;;0.47;;
21554;SDS011;10938;44.794;-0.676;2023-08-30T05:35:37;0.60;;;0.60;;
21554;SDS011;10938;44.794;-0.676;2023-08-30T05:38:02;3.77;;;1.27;;
21554;SDS011;10938;44.794;-0.676;2023-08-30T05:40:27;0.55;;;0.55;;
21554;SDS011;10938;44.794;-0.676;2023-08-30T05:42:53;2.50;;;1.23;;
21554;SDS011;10938;44.794;-0.676;2023-08-30T05:45:20;0.50;;;0.50;;
21554;SDS011;10938;44.794;-0.676;2023-08-30T05:47:45;0.60;;;0.60;;
21554;SDS011;10938;44.794;-0.676;2023-08-30T05:50:10;0.75;;;0.75;;
21554;SDS011;10938;44.794;-0.676;2023-08-30T05:52:36;0.50;;;0.50;;
21554;SDS011;10938;44.794;-0.676;2023-08-30T05:55:06;0.93;;;0.63;;
21554;SDS011;10938;44.794;-0.676;2023-08-30T05:57:31;0.52;;;0.52;;
21554;SDS011;10938;44.794;-0.676;2023-08-30T05:59:58;0.98;;;0.88;;
21554;SDS011;10938;44.794;-0.676;2023-08-30T06:02:23;2.05;;;0.95;;
21554;SDS011;10938;44.794;-0.676;2023-08-30T06:04:49;0.60;;;0.60;;
21554;SDS011;10938;44.794;-0.676;2023-08-30T06:07:14;0.63;;;0.60;;
21554;SDS011;10938;44.794;-0.676;2023-08-30T06:09:39;1.02;;;1.00;;
21554;SDS011;10938;44.794;-0.676;2023-08-30T06:12:05;1.07;;;0.97;;
21554;SDS011;10938;44.794;-0.676;2023-08-30T06:14:30;1.20;;;0.63;;
21554;SDS011;10938;44.794;-0.676;2023-08-30T06:16:55;0.38;;;0.38;;
21554;SDS011;10938;44.794;-0.676;2023-08-30T06:19:21;1.30;;;0.83;;
21554;SDS011;10938;44.794;-0.676;2023-08-30T06:21:46;0.67;;;0.67;;
21554;SDS011;10938;44.794;-0.676;2023-08-30T06:24:11;0.97;;;0.90;;
21554;SDS011;10938;44.794;-0.676;2023-08-30T06:26:37;1.08;;;0.93;;
21554;SDS011;10938;44.794;-0.676;2023-08-30T06:29:02;0.60;;;0.60;;
21554;SDS011;10938;44.794;-0.676;2023-08-30T06:31:27;1.30;;;1.20;;
21554;SDS011;10938;44.794;-0.676;2023-08-30T06:33:54;0.73;;;0.73;;
21554;SDS011;10938;44.794;-0.676;2023-08-30T06:36:19;1.33;;;0.77;;
21554;SDS011;10938;44.794;-0.676;2023-08-30T06:38:47;1.05;;;0.80;;
21554;SDS011;10938;44.794;-0.676;2023-08-30T06:41:12;1.70;;;0.87;;
21554;SDS011;10938;44.794;-0.676;2023-08-30T06:43:37;0.87;;;0.87;;
21554;SDS011;10938;44.794;-0.676;2023-08-30T06:46:03;0.83;;;0.60;;
21554;SDS011;10938;44.794;-0.676;2023-08-30T06:48:28;1.17;;;1.05;;
21554;SDS011;10938;44.794;-0.676;2023-08-30T06:50:56;0.73;;;0.73;;
21554;SDS011;10938;44.794;-0.676;2023-08-30T06:53:22;0.77;;;0.77;;
21554;SDS011;10938;44.794;-0.676;2023-08-30T06:55:56;0.73;;;0.57;;
21554;SDS011;10938;44.794;-0.676;2023-08-30T06:58:21;0.65;;;0.65;;
21554;SDS011;10938;44.794;-0.676;2023-08-30T07:00:46;1.20;;;0.63;;
21554;SDS011;10938;44.794;-0.676;2023-08-30T07:03:12;3.10;;;0.93;;
21554;SDS011;10938;44.794;-0.676;2023-08-30T07:05:37;0.60;;;0.60;;
21554;SDS011;10938;44.794;-0.676;2023-08-30T07:08:02;1.85;;;1.05;;
21554;SDS011;10938;44.794;-0.676;2023-08-30T07:10:28;1.02;;;0.95;;
21554;SDS011;10938;44.794;-0.676;2023-08-30T07:12:53;0.95;;;0.90;;
21554;SDS011;10938;44.794;-0.676;2023-08-30T07:15:18;1.87;;;0.80;;
21554;SDS011;10938;44.794;-0.676;2023-08-30T07:17:44;0.50;;;0.50;;
21554;SDS011;10938;44.794;-0.676;2023-08-30T07:20:09;1.33;;;1.23;;
21554;SDS011;10938;44.794;-0.676;2023-08-30T07:22:39;0.93;;;0.82;;
21554;SDS011;10938;44.794;-0.676;2023-08-30T07:25:04;1.20;;;1.10;;
21554;SDS011;10938;44.794;-0.676;2023-08-30T07:27:30;0.93;;;0.77;;
21554;SDS011;10938;44.794;-0.676;2023-08-30T07:29:56;1.10;;;1.00;;
21554;SDS011;10938;44.794;-0.676;2023-08-30T07:32:21;1.30;;;1.03;;
21554;SDS011;10938;44.794;-0.676;2023-08-30T07:34:47;1.20;;;1.10;;
21554;SDS011;10938;44.794;-0.676;2023-08-30T07:37:21;1.60;;;1.50;;
21554;SDS011;10938;44.794;-0.676;2023-08-30T07:39:47;0.88;;;0.88;;
21554;SDS011;10938;44.794;-0.676;2023-08-30T07:42:13;0.90;;;0.90;;
21554;SDS011;10938;44.794;-0.676;2023-08-30T07:44:38;1.50;;;1.20;;
21554;SDS011;10938;44.794;-0.676;2023-08-30T07:47:03;0.97;;;0.97;;
21554;SDS011;10938;44.794;-0.676;2023-08-30T07:49:29;1.35;;;1.25;;
21554;SDS011;10938;44.794;-0.676;2023-08-30T07:51:54;1.57;;;1.47;;
21554;SDS011;10938;44.794;-0.676;2023-08-30T07:54:20;2.08;;;1.45;;
21554;SDS011;10938;44.794;-0.676;2023-08-30T07:56:45;1.10;;;1.10;;
21554;SDS011;10938;44.794;-0.676;2023-08-30T07:59:10;1.20;;;1.20;;
21554;SDS011;10938;44.794;-0.676;2023-08-30T08:01:36;1.98;;;1.13;;
21554;SDS011;10938;44.794;-0.676;2023-08-30T08:04:01;1.17;;;1.17;;
21554;SDS011;10938;44.794;-0.676;2023-08-30T08:06:26;1.03;;;1.03;;
21554;SDS011;10938;44.794;-0.676;2023-08-30T08:08:51;1.00;;;1.00;;
21554;SDS011;10938;44.794;-0.676;2023-08-30T08:11:17;0.93;;;0.93;;
21554;SDS011;10938;44.794;-0.676;2023-08-30T08:13:42;1.37;;;1.10;;
21554;SDS011;10938;44.794;-0.676;2023-08-30T08:16:07;1.93;;;1.73;;
21554;SDS011;10938;44.794;-0.676;2023-08-30T08:18:33;1.58;;;1.40;;
21554;SDS011;10938;44.794;-0.676;2023-08-30T08:21:00;1.65;;;1.48;;
21554;SDS011;10938;44.794;-0.676;2023-08-30T08:23:25;1.53;;;1.43;;
21554;SDS011;10938;44.794;-0.676;2023-08-30T08:25:56;1.35;;;1.30;;
21554;SDS011;10938;44.794;-0.676;2023-08-30T08:28:22;1.30;;;1.30;;
21554;SDS011;10938;44.794;-0.676;2023-08-30T08:30:47;1.60;;;1.50;;
21554;SDS011;10938;44.794;-0.676;2023-08-30T08:33:16;1.35;;;1.23;;
21554;SDS011;10938;44.794;-0.676;2023-08-30T08:35:42;2.47;;;1.80;;
21554;SDS011;10938;44.794;-0.676;2023-08-30T08:38:07;1.25;;;1.20;;
21554;SDS011;10938;44.794;-0.676;2023-08-30T08:40:36;0.93;;;0.93;;
21554;SDS011;10938;44.794;-0.676;2023-08-30T08:43:01;1.52;;;1.42;;
21554;SDS011;10938;44.794;-0.676;2023-08-30T08:45:31;1.98;;;1.15;;
21554;SDS011;10938;44.794;-0.676;2023-08-30T08:47:56;4.47;;;1.00;;
21554;SDS011;10938;44.794;-0.676;2023-08-30T08:50:21;1.17;;;1.17;;
21554;SDS011;10938;44.794;-0.676;2023-08-30T08:52:47;1.30;;;1.20;;
21554;SDS011;10938;44.794;-0.676;2023-08-30T08:55:13;1.45;;;1.20;;
21554;SDS011;10938;44.794;-0.676;2023-08-30T08:57:38;1.73;;;1.63;;
21554;SDS011;10938;44.794;-0.676;2023-08-30T09:00:04;1.15;;;1.15;;
21554;SDS011;10938;44.794;-0.676;2023-08-30T09:02:30;1.30;;;1.30;;
21554;SDS011;10938;44.794;-0.676;2023-08-30T09:04:55;1.50;;;1.40;;
21554;SDS011;10938;44.794;-0.676;2023-08-30T09:07:24;1.40;;;1.30;;
21554;SDS011;10938;44.794;-0.676;2023-08-30T09:09:50;1.00;;;1.00;;
21554;SDS011;10938;44.794;-0.676;2023-08-30T09:12:17;1.40;;;1.30;;
21554;SDS011;10938;44.794;-0.676;2023-08-30T09:14:52;1.20;;;1.10;;
21554;SDS011;10938;44.794;-0.676;2023-08-30T09:17:17;1.80;;;1.20;;
21554;SDS011;10938;44.794;-0.676;2023-08-30T09:19:42;1.23;;;1.13;;
21554;SDS011;10938;44.794;-0.676;2023-08-30T09:22:08;1.20;;;1.20;;
21554;SDS011;10938;44.794;-0.676;2023-08-30T09:24:39;1.37;;;1.27;;
21554;SDS011;10938;44.794;-0.676;2023-08-30T09:27:05;2.33;;;1.45;;
21554;SDS011;10938;44.794;-0.676;2023-08-30T09:29:30;1.25;;;1.15;;
21554;SDS011;10938;44.794;-0.676;2023-08-30T09:31:56;0.70;;;0.70;;
21554;SDS011;10938;44.794;-0.676;2023-08-30T09:34:22;1.03;;;1.00;;
21554;SDS011;10938;44.794;-0.676;2023-08-30T09:36:48;1.60;;;1.50;;
21554;SDS011;10938;44.794;-0.676;2023-08-30T09:39:15;0.73;;;0.73;;
21554;SDS011;10938;44.794;-0.676;2023-08-30T09:41:40;0.80;;;0.80;;
21554;SDS011;10938;44.794;-0.676;2023-08-30T09:44:07;0.80;;;0.80;;
21554;SDS011;10938;44.794;-0.676;2023-08-30T09:46:32;0.90;;;0.90;;
21554;SDS011;10938;44.794;-0.676;2023-08-30T09:48:58;0.80;;;0.80;;
21554;SDS011;10938;44.794;-0.676;2023-08-30T09:51:23;0.77;;;0.77;;
21554;SDS011;10938;44.794;-0.676;2023-08-30T09:53:51;0.70;;;0.70;;
21554;SDS011;10938;44.794;-0.676;2023-08-30T09:56:19;0.60;;;0.60;;
21554;SDS011;10938;44.794;-0.676;2023-08-30T09:58:46;0.80;;;0.80;;
21554;SDS011;10938;44.794;-0.676;2023-08-30T10:01:11;0.70;;;0.70;;
21554;SDS011;10938;44.794;-0.676;2023-08-30T10:03:37;1.23;;;0.90;;
21554;SDS011;10938;44.794;-0.676;2023-08-30T10:06:02;0.70;;;0.70;;
21554;SDS011;10938;44.794;-0.676;2023-08-30T10:08:30;0.40;;;0.40;;
21554;SDS011;10938;44.794;-0.676;2023-08-30T10:10:57;0.68;;;0.68;;
21554;SDS011;10938;44.794;-0.676;2023-08-30T10:13:23;0.80;;;0.80;;
21554;SDS011;10938;44.794;-0.676;2023-08-30T10:15:58;0.80;;;0.80;;
21554;SDS011;10938;44.794;-0.676;2023-08-30T10:18:27;1.00;;;1.00;;
21554;SDS011;10938;44.794;-0.676;2023-08-30T10:20:54;0.82;;;0.70;;
21554;SDS011;10938;44.794;-0.676;2023-08-30T10:23:20;0.63;;;0.63;;
21554;SDS011;10938;44.794;-0.676;2023-08-30T10:25:46;0.73;;;0.73;;
21554;SDS011;10938;44.794;-0.676;2023-08-30T10:28:13;1.48;;;1.02;;
21554;SDS011;10938;44.794;-0.676;2023-08-30T10:30:39;0.80;;;0.80;;
21554;SDS011;10938;44.794;-0.676;2023-08-30T10:33:11;0.60;;;0.60;;
21554;SDS011;10938;44.794;-0.676;2023-08-30T10:35:46;0.70;;;0.70;;
21554;SDS011;10938;44.794;-0.676;2023-08-30T10:38:12;0.70;;;0.70;;
21554;SDS011;10938;44.794;-0.676;2023-08-30T10:40:47;0.50;;;0.50;;
21554;SDS011;10938;44.794;-0.676;2023-08-30T10:43:12;0.50;;;0.50;;
21554;SDS011;10938;44.794;-0.676;2023-08-30T10:45:37;0.50;;;0.50;;
21554;SDS011;10938;44.794;-0.676;2023-08-30T10:48:03;0.68;;;0.60;;
21554;SDS011;10938;44.794;-0.676;2023-08-30T10:50:29;0.60;;;0.60;;
21554;SDS011;10938;44.794;-0.676;2023-08-30T10:52:55;0.60;;;0.60;;
21554;SDS011;10938;44.794;-0.676;2023-08-30T10:55:21;0.50;;;0.50;;
21554;SDS011;10938;44.794;-0.676;2023-08-30T10:57:57;0.77;;;0.77;;
21554;SDS011;10938;44.794;-0.676;2023-08-30T11:05:13;0.60;;;0.60;;
21554;SDS011;10938;44.794;-0.676;2023-08-30T11:07:40;0.57;;;0.57;;
21554;SDS011;10938;44.794;-0.676;2023-08-30T11:10:05;0.40;;;0.40;;
21554;SDS011;10938;44.794;-0.676;2023-08-30T11:12:31;0.50;;;0.50;;
21554;SDS011;10938;44.794;-0.676;2023-08-30T11:14:56;0.57;;;0.57;;
21554;SDS011;10938;44.794;-0.676;2023-08-30T11:17:22;0.50;;;0.50;;
21554;SDS011;10938;44.794;-0.676;2023-08-30T11:19:51;0.70;;;0.70;;
21554;SDS011;10938;44.794;-0.676;2023-08-30T11:22:22;0.60;;;0.60;;
21554;SDS011;10938;44.794;-0.676;2023-08-30T11:24:48;0.60;;;0.60;;
21554;SDS011;10938;44.794;-0.676;2023-08-30T11:27:16;0.40;;;0.40;;
21554;SDS011;10938;44.794;-0.676;2023-08-30T11:29:41;0.80;;;0.80;;
21554;SDS011;10938;44.794;-0.676;2023-08-30T11:32:07;1.10;;;0.60;;
21554;SDS011;10938;44.794;-0.676;2023-08-30T11:34:33;0.60;;;0.60;;
21554;SDS011;10938;44.794;-0.676;2023-08-30T11:36:58;0.60;;;0.60;;
21554;SDS011;10938;44.794;-0.676;2023-08-30T11:39:24;0.50;;;0.50;;
21554;SDS011;10938;44.794;-0.676;2023-08-30T11:41:53;0.50;;;0.50;;
21554;SDS011;10938;44.794;-0.676;2023-08-30T11:44:18;1.27;;;0.60;;
21554;SDS011;10938;44.794;-0.676;2023-08-30T11:46:44;0.90;;;0.80;;
21554;SDS011;10938;44.794;-0.676;2023-08-30T11:49:09;0.90;;;0.70;;
21554;SDS011;10938;44.794;-0.676;2023-08-30T11:51:35;0.40;;;0.40;;
21554;SDS011;10938;44.794;-0.676;2023-08-30T11:54:00;0.23;;;0.23;;
21554;SDS011;10938;44.794;-0.676;2023-08-30T11:56:28;2.63;;;0.57;;
21554;SDS011;10938;44.794;-0.676;2023-08-30T11:58:54;0.60;;;0.60;;
21554;SDS011;10938;44.794;-0.676;2023-08-30T12:01:19;0.57;;;0.57;;
21554;SDS011;10938;44.794;-0.676;2023-08-30T12:03:44;0.50;;;0.50;;
21554;SDS011;10938;44.794;-0.676;2023-08-30T12:06:14;0.60;;;0.60;;
21554;SDS011;10938;44.794;-0.676;2023-08-30T12:08:40;0.57;;;0.55;;
21554;SDS011;10938;44.794;-0.676;2023-08-30T12:11:05;0.67;;;0.67;;
21554;SDS011;10938;44.794;-0.676;2023-08-30T12:13:33;1.27;;;0.50;;
21554;SDS011;10938;44.794;-0.676;2023-08-30T12:16:00;0.50;;;0.50;;
21554;SDS011;10938;44.794;-0.676;2023-08-30T12:18:31;1.40;;;0.60;;
21554;SDS011;10938;44.794;-0.676;2023-08-30T12:21:03;0.50;;;0.50;;
21554;SDS011;10938;44.794;-0.676;2023-08-30T12:23:29;0.63;;;0.43;;
21554;SDS011;10938;44.794;-0.676;2023-08-30T12:28:27;0.50;;;0.50;;
21554;SDS011;10938;44.794;-0.676;2023-08-30T12:30:52;0.30;;;0.30;;
21554;SDS011;10938;44.794;-0.676;2023-08-30T12:33:18;0.40;;;0.40;;
21554;SDS011;10938;44.794;-0.676;2023-08-30T12:35:43;0.60;;;0.60;;
21554;SDS011;10938;44.794;-0.676;2023-08-30T12:38:09;0.30;;;0.30;;
21554;SDS011;10938;44.794;-0.676;2023-08-30T12:40:35;0.80;;;0.80;;
21554;SDS011;10938;44.794;-0.676;2023-08-30T12:43:01;0.40;;;0.40;;
21554;SDS011;10938;44.794;-0.676;2023-08-30T12:45:26;0.83;;;0.50;;
21554;SDS011;10938;44.794;-0.676;2023-08-30T12:47:52;0.83;;;0.40;;
21554;SDS011;10938;44.794;-0.676;2023-08-30T12:50:17;0.40;;;0.40;;
21554;SDS011;10938;44.794;-0.676;2023-08-30T12:52:42;0.40;;;0.40;;
21554;SDS011;10938;44.794;-0.676;2023-08-30T12:55:08;0.50;;;0.50;;
21554;SDS011;10938;44.794;-0.676;2023-08-30T12:57:33;0.30;;;0.30;;
21554;SDS011;10938;44.794;-0.676;2023-08-30T12:59:59;1.02;;;0.35;;
21554;SDS011;10938;44.794;-0.676;2023-08-30T13:02:24;0.30;;;0.30;;
21554;SDS011;10938;44.794;-0.676;2023-08-30T13:04:49;0.20;;;0.20;;
21554;SDS011;10938;44.794;-0.676;2023-08-30T13:07:15;0.20;;;0.20;;
21554;SDS011;10938;44.794;-0.676;2023-08-30T13:09:40;0.30;;;0.30;;
21554;SDS011;10938;44.794;-0.676;2023-08-30T13:12:05;0.20;;;0.20;;
21554;SDS011;10938;44.794;-0.676;2023-08-30T13:14:31;0.10;;;0.10;;
21554;SDS011;10938;44.794;-0.676;2023-08-30T13:16:56;0.93;;;0.83;;
21554;SDS011;10938;44.794;-0.676;2023-08-30T13:19:21;0.23;;;0.23;;
21554;SDS011;10938;44.794;-0.676;2023-08-30T13:21:48;0.20;;;0.20;;
21554;SDS011;10938;44.794;-0.676;2023-08-30T13:24:13;0.20;;;0.20;;
21554;SDS011;10938;44.794;-0.676;2023-08-30T13:26:38;0.20;;;0.20;;
21554;SDS011;10938;44.794;-0.676;2023-08-30T13:29:04;0.17;;;0.17;;
21554;SDS011;10938;44.794;-0.676;2023-08-30T13:31:29;0.20;;;0.20;;
21554;SDS011;10938;44.794;-0.676;2023-08-30T13:33:54;0.60;;;0.57;;
21554;SDS011;10938;44.794;-0.676;2023-08-30T13:36:19;0.33;;;0.33;;
21554;SDS011;10938;44.794;-0.676;2023-08-30T13:38:45;0.47;;;0.20;;
21554;SDS011;10938;44.794;-0.676;2023-08-30T13:41:10;0.30;;;0.30;;
21554;SDS011;10938;44.794;-0.676;2023-08-30T13:43:35;0.33;;;0.30;;
21554;SDS011;10938;44.794;-0.676;2023-08-30T13:46:01;0.20;;;0.20;;
21554;SDS011;10938;44.794;-0.676;2023-08-30T13:48:26;0.10;;;0.10;;
21554;SDS011;10938;44.794;-0.676;2023-08-30T13:50:51;0.20;;;0.20;;
21554;SDS011;10938;44.794;-0.676;2023-08-30T13:53:16;0.90;;;0.30;;
21554;SDS011;10938;44.794;-0.676;2023-08-30T13:55:45;0.10;;;0.10;;
21554;SDS011;10938;44.794;-0.676;2023-08-30T13:58:13;0.20;;;0.20;;
21554;SDS011;10938;44.794;-0.676;2023-08-30T14:00:38;0.30;;;0.30;;
21554;SDS011;10938;44.794;-0.676;2023-08-30T14:03:04;0.20;;;0.20;;
21554;SDS011;10938;44.794;-0.676;2023-08-30T14:05:29;0.30;;;0.30;;
21554;SDS011;10938;44.794;-0.676;2023-08-30T14:07:54;0.20;;;0.20;;
21554;SDS011;10938;44.794;-0.676;2023-08-30T14:10:20;0.20;;;0.20;;
21554;SDS011;10938;44.794;-0.676;2023-08-30T14:12:45;0.30;;;0.30;;
21554;SDS011;10938;44.794;-0.676;2023-08-30T14:15:10;0.40;;;0.40;;
21554;SDS011;10938;44.794;-0.676;2023-08-30T14:17:36;0.30;;;0.30;;
21554;SDS011;10938;44.794;-0.676;2023-08-30T14:20:01;0.27;;;0.23;;
21554;SDS011;10938;44.794;-0.676;2023-08-30T14:22:27;0.25;;;0.25;;
21554;SDS011;10938;44.794;-0.676;2023-08-30T14:24:52;0.10;;;0.10;;
21554;SDS011;10938;44.794;-0.676;2023-08-30T14:27:17;0.30;;;0.30;;
21554;SDS011;10938;44.794;-0.676;2023-08-30T14:29:42;0.28;;;0.28;;
21554;SDS011;10938;44.794;-0.676;2023-08-30T14:32:08;0.20;;;0.20;;
21554;SDS011;10938;44.794;-0.676;2023-08-30T14:34:33;0.20;;;0.20;;
21554;SDS011;10938;44.794;-0.676;2023-08-30T14:36:58;0.10;;;0.10;;
21554;SDS011;10938;44.794;-0.676;2023-08-30T14:39:26;0.30;;;0.30;;
21554;SDS011;10938;44.794;-0.676;2023-08-30T14:41:52;0.10;;;0.10;;
21554;SDS011;10938;44.794;-0.676;2023-08-30T14:44:17;0.60;;;0.38;;
21554;SDS011;10938;44.794;-0.676;2023-08-30T14:46:42;0.10;;;0.10;;